createdAt,value
2023-02-02T00:01:33.003Z,99721.01
2023-02-02T00:04:01.225Z,99719.70
2023-02-02T00:06:31.300Z,99715.80
2023-02-02T00:09:01.307Z,99713.81
2023-02-02T00:11:29.563Z,99712.44
2023-02-02T00:13:57.520Z,99706.63
2023-02-02T00:16:28.712Z,99707.67
2023-02-02T00:18:59.361Z,99706.44
2023-02-02T00:21:28.233Z,99697.92
2023-02-02T00:23:56.195Z,99703.48
2023-02-02T00:26:24.728Z,99697.35
2023-02-02T00:28:53.086Z,99698.33
2023-02-02T00:31:21.140Z,99702.51
2023-02-02T00:33:50.200Z,99709.33
2023-02-02T00:36:19.479Z,99709.23
2023-02-02T00:38:48.934Z,99714.90
2023-02-02T00:41:17.299Z,99718.61
2023-02-02T00:43:46.945Z,99722.19
2023-02-02T00:46:19.365Z,99724.77
2023-02-02T00:48:47.441Z,99717.42
2023-02-02T00:51:15.409Z,99716.02
2023-02-02T00:53:43.282Z,99720.64
2023-02-02T00:56:11.383Z,99722.19
2023-02-02T00:58:39.370Z,99721.58
2023-02-02T01:01:18.464Z,99720.77
2023-02-02T01:03:46.910Z,99719.27
2023-02-02T01:06:16.091Z,99722.95
2023-02-02T01:08:44.350Z,99717.97
2023-02-02T01:11:12.368Z,99719.81
2023-02-02T01:13:40.425Z,99724.02
2023-02-02T01:16:08.554Z,99721.57
2023-02-02T01:18:37.001Z,99729.48
2023-02-02T01:21:08.204Z,99718.06
2023-02-02T01:23:37.296Z,99729.89
2023-02-02T01:26:08.661Z,99731.15
2023-02-02T01:28:37.380Z,99734.73
2023-02-02T01:31:08.221Z,99733.10
2023-02-02T01:33:36.313Z,99735.30
2023-02-02T01:36:06.816Z,99742.48
2023-02-02T01:38:35.313Z,99739.02
2023-02-02T01:41:07.322Z,99737.90
2023-02-02T01:43:41.729Z,99737.25
2023-02-02T01:46:21.022Z,99730.21
2023-02-02T01:49:03.179Z,99727.51
2023-02-02T01:51:52.116Z,99727.65
2023-02-02T01:54:39.233Z,99727.77
2023-02-02T01:57:12.788Z,99727.30
2023-02-02T01:59:42.034Z,99725.27
2023-02-02T02:02:13.063Z,99727.73
2023-02-02T02:04:42.649Z,99724.27
2023-02-02T02:07:11.299Z,99728.05
2023-02-02T02:09:39.299Z,99725.81
2023-02-02T02:12:15.725Z,99720.86
2023-02-02T02:15:06.958Z,99721.11
2023-02-02T02:17:53.921Z,99721.73
2023-02-02T02:21:05.130Z,99718.05
2023-02-02T02:24:17.702Z,99708.27
2023-02-02T02:26:56.704Z,99710.36
2023-02-02T02:29:51.032Z,99704.40
2023-02-02T02:32:37.734Z,99701.80
2023-02-02T02:35:13.115Z,99699.06
2023-02-02T02:37:51.327Z,99698.30
2023-02-02T02:40:25.544Z,99697.96
2023-02-02T02:42:59.926Z,99689.95
2023-02-02T02:45:28.344Z,99698.00
2023-02-02T02:47:56.644Z,99695.20
2023-02-02T02:50:24.599Z,99686.41
2023-02-02T02:53:04.435Z,99687.50
2023-02-02T02:55:47.746Z,99681.39
2023-02-02T02:58:21.158Z,99674.64
2023-02-02T03:01:08.176Z,99678.08
2023-02-02T03:03:51.540Z,99673.81
2023-02-02T03:06:46.220Z,99672.98
2023-02-02T03:09:20.110Z,99665.94
2023-02-02T03:11:48.339Z,99671.89
2023-02-02T03:14:16.739Z,99667.60
2023-02-02T03:16:44.750Z,99660.52
2023-02-02T03:19:13.092Z,99659.36
2023-02-02T03:21:41.140Z,99655.14
2023-02-02T03:24:09.350Z,99650.98
2023-02-02T03:26:37.878Z,99641.13
2023-02-02T03:29:06.308Z,99630.51
2023-02-02T03:31:37.307Z,99624.41
2023-02-02T03:34:05.856Z,99624.48
2023-02-02T03:36:34.121Z,99619.83
2023-02-02T03:39:02.798Z,99618.02
2023-02-02T03:41:30.684Z,99617.91
2023-02-02T03:43:58.723Z,99617.50
2023-02-02T03:46:27.166Z,99619.14
2023-02-02T03:48:56.031Z,99618.04
2023-02-02T03:51:24.258Z,99613.70
2023-02-02T03:53:52.453Z,99617.28
2023-02-02T03:56:20.729Z,99614.39
2023-02-02T03:58:48.690Z,99619.45
2023-02-02T04:01:16.794Z,99613.71
2023-02-02T04:03:46.409Z,99608.65
2023-02-02T04:06:14.491Z,99614.69
2023-02-02T04:08:45.864Z,99610.87
2023-02-02T04:11:14.117Z,99610.47
2023-02-02T04:13:45.670Z,99618.08
2023-02-02T04:16:15.196Z,99620.83
2023-02-02T04:18:43.205Z,99623.09
2023-02-02T04:21:11.421Z,99624.02
2023-02-02T04:23:39.497Z,99611.71
2023-02-02T04:26:07.500Z,99611.78
2023-02-02T04:28:35.926Z,99618.32
2023-02-02T04:31:03.956Z,99616.23
2023-02-02T04:33:32.075Z,99611.38
2023-02-02T04:36:00.319Z,99615.11
2023-02-02T04:38:28.552Z,99617.09
2023-02-02T04:40:56.793Z,99617.67
2023-02-02T04:43:24.718Z,99618.21
2023-02-02T04:45:57.378Z,99614.83
2023-02-02T04:48:25.717Z,99611.64
2023-02-02T04:51:01.188Z,99610.52
2023-02-02T04:53:29.857Z,99610.58
2023-02-02T04:55:58.563Z,99601.86
2023-02-02T04:58:27.359Z,99601.21
2023-02-02T05:00:55.302Z,99594.71
2023-02-02T05:03:23.831Z,99600.35
2023-02-02T05:05:51.950Z,99594.86
2023-02-02T05:08:21.371Z,99600.50
2023-02-02T05:10:50.488Z,99599.56
2023-02-02T05:13:18.777Z,99605.27
2023-02-02T05:15:47.012Z,99608.02
2023-02-02T05:18:15.185Z,99607.65
2023-02-02T05:20:43.389Z,99610.50
2023-02-02T05:23:11.515Z,99605.40
2023-02-02T05:25:39.811Z,99603.98
2023-02-02T05:28:07.800Z,99605.16
2023-02-02T05:30:36.025Z,99614.84
2023-02-02T05:33:04.367Z,99613.72
2023-02-02T05:35:32.535Z,99611.52
2023-02-02T05:38:00.394Z,99610.69
2023-02-02T05:40:28.760Z,99609.13
2023-02-02T05:42:56.995Z,99613.58
2023-02-02T05:45:25.263Z,99607.19
2023-02-02T05:47:55.161Z,99609.86
2023-02-02T05:50:23.261Z,99616.59
2023-02-02T05:52:51.507Z,99614.78
2023-02-02T05:55:20.177Z,99624.31
2023-02-02T05:57:48.316Z,99623.19
2023-02-02T06:00:19.867Z,99629.10
2023-02-02T06:02:48.325Z,99628.70
2023-02-02T06:05:16.702Z,99630.40
2023-02-02T06:07:44.741Z,99642.98
2023-02-02T06:10:12.760Z,99643.44
2023-02-02T06:12:40.590Z,99643.98
2023-02-02T06:15:08.995Z,99646.27
2023-02-02T06:17:37.190Z,99654.07
2023-02-02T06:20:05.819Z,99652.91
2023-02-02T06:22:33.937Z,99663.04
2023-02-02T06:25:04.375Z,99662.46
2023-02-02T06:27:32.753Z,99672.36
2023-02-02T06:30:00.583Z,99666.29
2023-02-02T06:32:31.440Z,99672.11
2023-02-02T06:34:59.348Z,99669.73
2023-02-02T06:37:29.639Z,99669.43
2023-02-02T06:39:58.854Z,99676.80
2023-02-02T06:42:26.791Z,99673.67
2023-02-02T06:44:54.757Z,99681.23
2023-02-02T06:47:22.744Z,99691.05
2023-02-02T06:49:51.230Z,99694.89
2023-02-02T06:52:19.078Z,99701.33
2023-02-02T06:54:47.168Z,99701.11
2023-02-02T06:57:15.187Z,99706.27
2023-02-02T06:59:43.186Z,99704.25
2023-02-02T07:02:13.358Z,99712.23
2023-02-02T07:04:41.218Z,99714.29
2023-02-02T07:07:09.205Z,99716.50
2023-02-02T07:09:37.270Z,99722.81
2023-02-02T07:12:05.497Z,99722.75
2023-02-02T07:14:33.530Z,99727.09
2023-02-02T07:17:01.718Z,99728.36
2023-02-02T07:19:29.777Z,99727.27
2023-02-02T07:21:57.905Z,99724.41
2023-02-02T07:24:27.617Z,99739.52
2023-02-02T07:26:55.898Z,99734.06
2023-02-02T07:29:24.051Z,99744.79
2023-02-02T07:31:52.262Z,99739.29
2023-02-02T07:34:20.364Z,99746.67
2023-02-02T07:36:48.350Z,99759.16
2023-02-02T07:39:16.454Z,99764.34
2023-02-02T07:41:44.313Z,99767.02
2023-02-02T07:44:15.947Z,99775.87
2023-02-02T07:46:45.129Z,99776.91
2023-02-02T07:49:15.304Z,99779.66
2023-02-02T07:51:47.548Z,99784.64
2023-02-02T07:54:16.743Z,99788.41
2023-02-02T07:56:44.878Z,99794.88
2023-02-02T07:59:12.806Z,99790.86
2023-02-02T08:01:40.983Z,99804.24
2023-02-02T08:04:08.871Z,99817.43
2023-02-02T08:06:38.521Z,99817.23
2023-02-02T08:09:08.474Z,99815.80
2023-02-02T08:11:38.135Z,99822.89
2023-02-02T08:14:06.964Z,99820.72
2023-02-02T08:16:35.201Z,99825.71
2023-02-02T08:19:03.665Z,99832.03
2023-02-02T08:21:35.291Z,99837.86
2023-02-02T08:24:04.847Z,99840.60
2023-02-02T08:26:33.239Z,99852.96
2023-02-02T08:29:07.413Z,99838.55
2023-02-02T08:31:38.211Z,99859.95
2023-02-02T08:34:06.682Z,99858.63
2023-02-02T08:36:37.387Z,99863.42
2023-02-02T08:39:07.733Z,99868.69
2023-02-02T08:41:37.107Z,99877.34
2023-02-02T08:44:11.451Z,99884.17
2023-02-02T08:46:40.231Z,99885.48
2023-02-02T08:49:12.219Z,99893.25
2023-02-02T08:51:40.840Z,99889.38
2023-02-02T08:54:09.211Z,99897.70
2023-02-02T08:56:37.231Z,99901.17
2023-02-02T08:59:06.001Z,99907.46
2023-02-02T09:01:35.259Z,99911.05
2023-02-02T09:04:07.166Z,99916.55
2023-02-02T09:06:40.033Z,99923.81
2023-02-02T09:09:10.250Z,99932.46
2023-02-02T09:11:38.411Z,99938.29
2023-02-02T09:14:06.962Z,99945.88
2023-02-02T09:16:35.792Z,99949.96
2023-02-02T09:19:04.466Z,99953.84
2023-02-02T09:21:37.568Z,99956.99
2023-02-02T09:24:13.515Z,99964.45
2023-02-02T09:26:43.416Z,99979.16
2023-02-02T09:29:13.717Z,99978.38
2023-02-02T09:31:43.241Z,99979.86
2023-02-02T09:34:13.416Z,99991.90
2023-02-02T09:36:42.368Z,99995.91
2023-02-02T09:39:15.148Z,99995.73
2023-02-02T09:42:21.328Z,100002.97
2023-02-02T09:44:56.599Z,100016.58
2023-02-02T09:47:43.949Z,100013.07
2023-02-02T09:50:23.855Z,100016.98
2023-02-02T09:52:55.676Z,100018.35
2023-02-02T09:55:44.520Z,100022.90
2023-02-02T09:58:23.207Z,100023.79
2023-02-02T10:01:15.441Z,100032.94
2023-02-02T10:04:05.642Z,100033.42
2023-02-02T10:06:42.920Z,100043.15
2023-02-02T10:09:18.207Z,100046.03
2023-02-02T10:11:56.941Z,100042.81
2023-02-02T10:14:30.081Z,100044.51
2023-02-02T10:17:01.204Z,100044.84
2023-02-02T10:19:30.899Z,100053.98
2023-02-02T10:22:11.954Z,100057.49
2023-02-02T10:24:40.353Z,100056.84
2023-02-02T10:27:24.160Z,100054.73
2023-02-02T10:30:02.422Z,100058.73
2023-02-02T10:32:49.746Z,100065.38
2023-02-02T10:35:27.675Z,100067.07
2023-02-02T10:38:20.375Z,100068.80
2023-02-02T10:41:10.602Z,100074.09
2023-02-02T10:44:04.464Z,100075.11
2023-02-02T10:46:42.027Z,100069.22
2023-02-02T10:49:13.191Z,100071.10
2023-02-02T10:51:41.752Z,100075.62
2023-02-02T10:54:26.983Z,100082.67
2023-02-02T10:56:58.443Z,100083.24
2023-02-02T10:59:32.147Z,100078.45
2023-02-02T11:02:11.571Z,100081.20
2023-02-02T11:05:02.285Z,100075.95
2023-02-02T11:07:30.450Z,100079.82
2023-02-02T11:09:58.354Z,100077.08
2023-02-02T11:12:33.241Z,100082.55
2023-02-02T11:15:25.624Z,100079.19
2023-02-02T11:17:53.780Z,100088.21
2023-02-02T11:20:38.963Z,100088.27
2023-02-02T11:23:09.957Z,100104.45
2023-02-02T11:25:38.881Z,100108.37
2023-02-02T11:28:19.929Z,100105.52
2023-02-02T11:30:52.852Z,100107.81
2023-02-02T11:33:35.699Z,100114.90
2023-02-02T11:36:21.453Z,100122.84
2023-02-02T11:38:49.416Z,100128.38
2023-02-02T11:41:22.049Z,100131.19
2023-02-02T11:43:52.655Z,100133.58
2023-02-02T11:46:28.796Z,100131.77
2023-02-02T11:49:03.426Z,100134.31
2023-02-02T11:51:32.036Z,100140.73
2023-02-02T11:54:16.042Z,100142.95
2023-02-02T11:56:50.463Z,100145.46
2023-02-02T11:59:40.893Z,100145.31
2023-02-02T12:02:25.908Z,100147.39
2023-02-02T12:04:56.654Z,100146.38
2023-02-02T12:07:28.635Z,100148.36
2023-02-02T12:10:04.393Z,100154.09
2023-02-02T12:12:37.574Z,100159.37
2023-02-02T12:15:28.909Z,100163.66
2023-02-02T12:18:07.972Z,100166.36
2023-02-02T12:20:38.789Z,100170.95
2023-02-02T12:23:37.348Z,100173.96
2023-02-02T12:26:27.014Z,100176.30
2023-02-02T12:29:07.095Z,100184.21
2023-02-02T12:31:46.924Z,100186.16
2023-02-02T12:34:30.375Z,100193.42
2023-02-02T12:37:04.459Z,100199.28
2023-02-02T12:39:55.485Z,100207.41
2023-02-02T12:42:26.522Z,100208.60
2023-02-02T12:45:16.455Z,100206.36
2023-02-02T12:47:48.416Z,100207.95
2023-02-02T12:50:35.609Z,100212.48
2023-02-02T12:53:18.850Z,100219.77
2023-02-02T12:56:16.119Z,100214.84
2023-02-02T12:59:02.178Z,100216.27
2023-02-02T13:01:38.880Z,100218.44
2023-02-02T13:04:09.681Z,100218.98
2023-02-02T13:06:56.633Z,100219.30
2023-02-02T13:09:38.000Z,100217.48
2023-02-02T13:12:11.024Z,100220.17
2023-02-02T13:14:46.270Z,100221.94
2023-02-02T13:17:21.587Z,100226.61
2023-02-02T13:19:53.820Z,100229.67
2023-02-02T13:22:26.955Z,100227.60
2023-02-02T13:25:00.141Z,100228.58
2023-02-02T13:27:30.776Z,100230.96
2023-02-02T13:30:18.133Z,100243.31
2023-02-02T13:32:46.858Z,100250.77
2023-02-02T13:35:22.483Z,100251.66
2023-02-02T13:37:56.453Z,100260.73
2023-02-02T13:40:39.560Z,100272.83
2023-02-02T13:43:33.083Z,100278.35
2023-02-02T13:46:01.057Z,100284.16
2023-02-02T13:48:47.667Z,100286.75
2023-02-02T13:51:37.608Z,100290.70
2023-02-02T13:54:27.511Z,100291.35
2023-02-02T13:57:10.885Z,100302.58
2023-02-02T14:00:18.736Z,100299.66
2023-02-02T14:02:58.652Z,100303.49
2023-02-02T14:05:38.940Z,100301.11
2023-02-02T14:08:16.091Z,100300.14
2023-02-02T14:10:53.265Z,100304.73
2023-02-02T14:13:45.614Z,100305.81
2023-02-02T14:16:41.553Z,100308.93
2023-02-02T14:19:16.103Z,100324.10
2023-02-02T14:21:44.020Z,100335.89
2023-02-02T14:24:27.523Z,100343.36
2023-02-02T14:27:00.391Z,100341.38
2023-02-02T14:29:31.705Z,100348.99
2023-02-02T14:32:07.033Z,100350.02
2023-02-02T14:34:45.248Z,100363.85
2023-02-02T14:37:20.853Z,100366.53
2023-02-02T14:40:01.138Z,100369.35
2023-02-02T14:42:53.698Z,100368.98
2023-02-02T14:45:31.844Z,100371.48
2023-02-02T14:48:11.650Z,100376.42
2023-02-02T14:50:49.567Z,100379.58
2023-02-02T14:53:20.192Z,100387.15
2023-02-02T14:56:12.329Z,100389.69
2023-02-02T14:58:44.273Z,100395.78
2023-02-02T15:01:18.358Z,100401.73
2023-02-02T15:04:21.728Z,100406.50
2023-02-02T15:06:52.812Z,100413.52
2023-02-02T15:09:21.036Z,100418.73
2023-02-02T15:12:09.120Z,100431.54
2023-02-02T15:14:43.331Z,100438.48
2023-02-02T15:17:39.477Z,100440.55
2023-02-02T15:20:33.837Z,100456.05
2023-02-02T15:23:16.039Z,100459.94
2023-02-02T15:26:09.233Z,100465.20
2023-02-02T15:28:48.114Z,100471.84
2023-02-02T15:31:23.021Z,100472.21
2023-02-02T15:33:52.858Z,100485.94
2023-02-02T15:36:25.195Z,100494.66
2023-02-02T15:38:55.558Z,100504.06
2023-02-02T15:41:26.784Z,100512.58
2023-02-02T15:43:55.104Z,100524.48
2023-02-02T15:46:29.311Z,100531.55
2023-02-02T15:49:33.836Z,100540.11
2023-02-02T15:52:19.529Z,100543.18
2023-02-02T15:54:53.307Z,100548.98
2023-02-02T15:57:42.510Z,100559.42
2023-02-02T16:00:39.814Z,100569.85
2023-02-02T16:03:14.650Z,100579.36
2023-02-02T16:05:56.413Z,100585.87
2023-02-02T16:08:28.013Z,100599.02
2023-02-02T16:11:25.803Z,100606.25
2023-02-02T16:14:10.885Z,100617.54
2023-02-02T16:16:40.419Z,100628.16
2023-02-02T16:19:08.527Z,100632.16
2023-02-02T16:21:41.314Z,100637.30
2023-02-02T16:24:19.587Z,100645.85
2023-02-02T16:26:48.711Z,100655.17
2023-02-02T16:29:18.692Z,100660.43
2023-02-02T16:31:47.858Z,100666.08
2023-02-02T16:34:17.268Z,100672.95
2023-02-02T16:37:04.756Z,100681.57
2023-02-02T16:39:32.766Z,100682.15
2023-02-02T16:42:12.193Z,100689.25
2023-02-02T16:44:43.726Z,100695.45
2023-02-02T16:47:33.384Z,100705.16
2023-02-02T16:50:10.735Z,100708.11
2023-02-02T16:52:50.607Z,100719.41
2023-02-02T16:55:20.283Z,100728.02
2023-02-02T16:57:50.037Z,100735.65
2023-02-02T17:00:24.783Z,100748.90
2023-02-02T17:03:03.726Z,100750.66
2023-02-02T17:05:59.150Z,100754.21
2023-02-02T17:08:33.207Z,100767.41
2023-02-02T17:11:13.034Z,100774.95
2023-02-02T17:13:41.817Z,100782.30
2023-02-02T17:16:16.886Z,100786.48
2023-02-02T17:18:45.304Z,100794.88
2023-02-02T17:21:21.118Z,100799.06
2023-02-02T17:23:51.980Z,100805.82
2023-02-02T17:26:20.741Z,100808.77
2023-02-02T17:28:49.604Z,100812.67
2023-02-02T17:31:17.767Z,100818.27
2023-02-02T17:33:46.259Z,100826.89
2023-02-02T17:36:14.822Z,100831.00
2023-02-02T17:38:43.401Z,100840.67
2023-02-02T17:41:14.393Z,100846.98
2023-02-02T17:43:43.158Z,100852.95
2023-02-02T17:46:13.475Z,100859.17
2023-02-02T17:48:41.929Z,100862.13
2023-02-02T17:51:15.253Z,100868.06
2023-02-02T17:53:44.804Z,100872.02
2023-02-02T17:56:13.156Z,100879.83
2023-02-02T17:58:41.620Z,100883.82
2023-02-02T18:01:11.579Z,100890.40
2023-02-02T18:03:41.091Z,100893.71
2023-02-02T18:06:10.991Z,100896.84
2023-02-02T18:08:39.051Z,100898.64
2023-02-02T18:11:07.164Z,100904.39
2023-02-02T18:13:35.564Z,100910.22
2023-02-02T18:16:07.023Z,100912.39
2023-02-02T18:18:35.668Z,100918.31
2023-02-02T18:21:08.389Z,100925.34
2023-02-02T18:23:37.948Z,100928.01
2023-02-02T18:26:12.714Z,100927.78
2023-02-02T18:28:41.444Z,100931.73
2023-02-02T18:31:12.443Z,100933.34
2023-02-02T18:33:41.748Z,100935.64
2023-02-02T18:36:15.455Z,100936.89
2023-02-02T18:38:47.007Z,100949.59
2023-02-02T18:41:16.891Z,100955.07
2023-02-02T18:43:48.468Z,100966.59
2023-02-02T18:46:17.725Z,100977.25
2023-02-02T18:48:46.355Z,100976.06
2023-02-02T18:51:16.794Z,100989.11
2023-02-02T18:53:46.938Z,100994.81
2023-02-02T18:56:15.626Z,100998.16
2023-02-02T18:58:43.970Z,101005.88
2023-02-02T19:01:17.623Z,101007.66
2023-02-02T19:03:51.370Z,101014.64
2023-02-02T19:06:39.116Z,101021.91
2023-02-02T19:09:14.202Z,101022.60
2023-02-02T19:11:45.342Z,101020.66
2023-02-02T19:14:25.562Z,101023.34
2023-02-02T19:16:57.020Z,101024.95
2023-02-02T19:19:34.814Z,101027.71
2023-02-02T19:22:23.584Z,101028.36
2023-02-02T19:24:51.687Z,101031.30
2023-02-02T19:27:22.323Z,101042.83
2023-02-02T19:29:56.577Z,101040.67
2023-02-02T19:32:27.111Z,101041.51
2023-02-02T19:35:02.184Z,101048.40
2023-02-02T19:37:32.928Z,101056.08
2023-02-02T19:40:07.463Z,101063.05
2023-02-02T19:42:36.608Z,101063.70
2023-02-02T19:45:22.090Z,101068.12
2023-02-02T19:47:52.537Z,101067.98
2023-02-02T19:50:22.765Z,101078.68
2023-02-02T19:52:51.461Z,101082.30
2023-02-02T19:55:25.798Z,101083.23
2023-02-02T19:57:58.670Z,101091.09
2023-02-02T20:00:29.741Z,101091.96
2023-02-02T20:03:02.944Z,101092.06
2023-02-02T20:05:47.284Z,101091.23
2023-02-02T20:08:42.847Z,101093.95
2023-02-02T20:11:38.725Z,101101.16
2023-02-02T20:14:30.572Z,101111.86
2023-02-02T20:17:29.079Z,101119.94
2023-02-02T20:19:57.293Z,101126.23
2023-02-02T20:22:32.794Z,101131.45
2023-02-02T20:25:08.238Z,101132.46
2023-02-02T20:27:38.134Z,101134.98
2023-02-02T20:30:39.047Z,101135.34
2023-02-02T20:33:20.891Z,101141.45
2023-02-02T20:35:49.619Z,101141.48
2023-02-02T20:38:29.380Z,101145.46
2023-02-02T20:40:58.125Z,101149.05
2023-02-02T20:43:26.937Z,101153.09
2023-02-02T20:45:58.355Z,101156.95
2023-02-02T20:48:27.955Z,101161.81
2023-02-02T20:50:56.133Z,101166.50
2023-02-02T20:53:24.371Z,101171.73
2023-02-02T20:55:57.527Z,101170.82
2023-02-02T20:58:25.943Z,101176.92
2023-02-02T21:00:55.183Z,101180.33
2023-02-02T21:03:23.526Z,101178.58
2023-02-02T21:05:51.665Z,101185.55
2023-02-02T21:08:19.734Z,101187.39
2023-02-02T21:10:47.887Z,101189.77
2023-02-02T21:13:15.945Z,101186.89
2023-02-02T21:15:44.313Z,101185.38
2023-02-02T21:18:12.673Z,101184.95
2023-02-02T21:20:40.950Z,101181.19
2023-02-02T21:23:10.311Z,101182.29
2023-02-02T21:25:38.401Z,101179.90
2023-02-02T21:28:06.591Z,101179.98
2023-02-02T21:30:35.613Z,101177.06
2023-02-02T21:33:05.743Z,101175.64
2023-02-02T21:35:34.664Z,101175.82
2023-02-02T21:38:11.024Z,101174.32
2023-02-02T21:40:40.274Z,101175.92
2023-02-02T21:43:15.601Z,101171.57
2023-02-02T21:45:45.491Z,101169.23
2023-02-02T21:48:19.462Z,101168.04
2023-02-02T21:50:48.049Z,101169.14
2023-02-02T21:53:24.597Z,101170.05
2023-02-02T21:55:58.592Z,101176.84
2023-02-02T21:58:33.375Z,101174.90
2023-02-02T22:01:16.946Z,101177.42
2023-02-02T22:03:47.117Z,101181.54
2023-02-02T22:06:21.313Z,101181.66
2023-02-02T22:08:50.253Z,101179.38
2023-02-02T22:11:18.596Z,101185.36
2023-02-02T22:13:46.601Z,101188.34
2023-02-02T22:16:18.415Z,101190.98
2023-02-02T22:18:47.381Z,101191.84
2023-02-02T22:21:19.925Z,101187.48
2023-02-02T22:23:48.966Z,101190.22
2023-02-02T22:26:29.559Z,101187.73
2023-02-02T22:28:57.932Z,101196.10
2023-02-02T22:31:25.991Z,101196.80
2023-02-02T22:33:54.482Z,101194.98
2023-02-02T22:36:23.067Z,101190.41
2023-02-02T22:38:51.143Z,101191.42
2023-02-02T22:41:19.370Z,101195.67
2023-02-02T22:43:47.418Z,101197.59
2023-02-02T22:46:15.644Z,101200.43
2023-02-02T22:48:43.780Z,101203.95
2023-02-02T22:51:11.870Z,101208.06
2023-02-02T22:53:40.001Z,101209.66
2023-02-02T22:56:07.943Z,101204.92
2023-02-02T22:58:36.134Z,101207.35
2023-02-02T23:01:05.067Z,101206.23
2023-02-02T23:03:33.085Z,101207.60
2023-02-02T23:06:01.499Z,101211.86
2023-02-02T23:08:29.574Z,101215.86
2023-02-02T23:10:57.532Z,101218.48
2023-02-02T23:13:25.584Z,101223.05
2023-02-02T23:15:53.545Z,101230.36
2023-02-02T23:18:22.330Z,101234.02
2023-02-02T23:20:50.612Z,101237.77
2023-02-02T23:23:18.700Z,101238.55
2023-02-02T23:25:46.697Z,101241.08
2023-02-02T23:28:14.759Z,101240.48
2023-02-02T23:30:42.634Z,101233.30
2023-02-02T23:33:10.567Z,101232.17
2023-02-02T23:35:38.436Z,101233.75
2023-02-02T23:38:06.489Z,101231.81
2023-02-02T23:40:34.375Z,101233.00
2023-02-02T23:43:02.325Z,101229.70
2023-02-02T23:45:30.276Z,101228.95
2023-02-02T23:47:58.461Z,101227.91
2023-02-02T23:50:27.370Z,101230.07
2023-02-02T23:52:55.612Z,101226.83
2023-02-02T23:55:23.567Z,101224.05
2023-02-02T23:57:51.548Z,101220.72
